sensor_id;sensor_type;location;lat;lon;timestamp;pressure;altitude;pressure_sealevel;temperature;humidity
73501;BME280;61721;42.206;25.320;2023-05-08T00:02:27;99728.34;;;13.76;44.28
73501;BME280;61721;42.206;25.320;2023-05-08T00:05:14;99722.34;;;14.03;44.29
73501;BME280;61721;42.206;25.320;2023-05-08T00:07:49;99719.03;;;13.78;44.94
73501;BME280;61721;42.206;25.320;2023-05-08T00:10:32;99726.72;;;14.04;44.10
73501;BME280;61721;42.206;25.320;2023-05-08T00:13:09;99722.97;;;13.90;44.69
73501;BME280;61721;42.206;25.320;2023-05-08T00:15:45;99728.47;;;13.82;44.76
73501;BME280;61721;42.206;25.320;2023-05-08T00:18:21;99729.75;;;13.72;44.72
73501;BME280;61721;42.206;25.320;2023-05-08T00:21:00;99727.16;;;13.78;44.66
73501;BME280;61721;42.206;25.320;2023-05-08T00:23:36;99725.09;;;13.80;44.69
73501;BME280;61721;42.206;25.320;2023-05-08T00:26:12;99729.13;;;13.84;44.37
73501;BME280;61721;42.206;25.320;2023-05-08T00:28:48;99731.19;;;13.97;44.10
73501;BME280;61721;42.206;25.320;2023-05-08T00:31:24;99728.19;;;13.77;44.13
73501;BME280;61721;42.206;25.320;2023-05-08T00:34:00;99727.16;;;13.78;44.33
73501;BME280;61721;42.206;25.320;2023-05-08T00:36:39;99726.88;;;13.73;44.26
73501;BME280;61721;42.206;25.320;2023-05-08T00:39:15;99731.66;;;14.01;44.31
73501;BME280;61721;42.206;25.320;2023-05-08T00:41:52;99729.97;;;14.00;43.66
73501;BME280;61721;42.206;25.320;2023-05-08T00:44:30;99737.72;;;13.88;43.88
73501;BME280;61721;42.206;25.320;2023-05-08T00:47:05;99727.53;;;13.90;43.90
73501;BME280;61721;42.206;25.320;2023-05-08T00:49:43;99734.47;;;13.92;43.45
73501;BME280;61721;42.206;25.320;2023-05-08T00:52:22;99735.47;;;13.91;43.75
73501;BME280;61721;42.206;25.320;2023-05-08T00:54:59;99736.06;;;14.02;43.11
73501;BME280;61721;42.206;25.320;2023-05-08T00:57:37;99738.09;;;13.85;43.60
73501;BME280;61721;42.206;25.320;2023-05-08T01:00:16;99738.47;;;13.96;43.10
73501;BME280;61721;42.206;25.320;2023-05-08T01:02:53;99735.31;;;14.08;42.91
73501;BME280;61721;42.206;25.320;2023-05-08T01:05:30;99732.31;;;14.03;42.91
73501;BME280;61721;42.206;25.320;2023-05-08T01:08:09;99739.72;;;14.09;42.99
73501;BME280;61721;42.206;25.320;2023-05-08T01:10:52;99733.50;;;13.85;43.08
73501;BME280;61721;42.206;25.320;2023-05-08T01:13:39;99744.44;;;13.92;43.03
73501;BME280;61721;42.206;25.320;2023-05-08T01:16:20;99742.13;;;14.04;43.02
73501;BME280;61721;42.206;25.320;2023-05-08T01:19:02;99749.50;;;13.95;42.65
73501;BME280;61721;42.206;25.320;2023-05-08T01:21:47;99742.69;;;13.61;43.53
73501;BME280;61721;42.206;25.320;2023-05-08T01:30:19;99760.22;;;13.88;42.57
73501;BME280;61721;42.206;25.320;2023-05-08T01:33:09;99761.00;;;13.74;42.64
73501;BME280;61721;42.206;25.320;2023-05-08T01:35:50;99760.56;;;13.85;42.29
73501;BME280;61721;42.206;25.320;2023-05-08T01:38:31;99762.38;;;13.93;42.10
73501;BME280;61721;42.206;25.320;2023-05-08T01:41:13;99759.19;;;13.89;42.35
73501;BME280;61721;42.206;25.320;2023-05-08T01:43:58;99763.66;;;13.82;42.03
73501;BME280;61721;42.206;25.320;2023-05-08T01:50:03;99768.00;;;13.69;42.19
73501;BME280;61721;42.206;25.320;2023-05-08T01:52:45;99770.28;;;13.57;42.70
73501;BME280;61721;42.206;25.320;2023-05-08T01:55:26;99766.88;;;13.63;42.12
73501;BME280;61721;42.206;25.320;2023-05-08T01:58:07;99766.34;;;13.82;41.92
73501;BME280;61721;42.206;25.320;2023-05-08T02:00:45;99767.44;;;13.73;42.34
73501;BME280;61721;42.206;25.320;2023-05-08T02:03:23;99776.00;;;13.62;42.71
73501;BME280;61721;42.206;25.320;2023-05-08T02:06:04;99771.47;;;13.77;42.23
73501;BME280;61721;42.206;25.320;2023-05-08T02:08:42;99767.75;;;13.78;42.36
73501;BME280;61721;42.206;25.320;2023-05-08T02:11:19;99772.63;;;13.60;42.63
73501;BME280;61721;42.206;25.320;2023-05-08T02:13:58;99760.78;;;13.61;43.14
73501;BME280;61721;42.206;25.320;2023-05-08T02:16:36;99763.97;;;13.42;43.40
73501;BME280;61721;42.206;25.320;2023-05-08T02:19:15;99767.41;;;13.58;43.20
73501;BME280;61721;42.206;25.320;2023-05-08T02:21:57;99764.34;;;13.39;43.72
73501;BME280;61721;42.206;25.320;2023-05-08T02:24:34;99762.47;;;13.62;43.34
73501;BME280;61721;42.206;25.320;2023-05-08T02:27:19;99764.59;;;13.52;43.33
73501;BME280;61721;42.206;25.320;2023-05-08T02:29:57;99758.22;;;13.45;43.94
73501;BME280;61721;42.206;25.320;2023-05-08T02:32:35;99760.84;;;13.53;43.83
73501;BME280;61721;42.206;25.320;2023-05-08T02:35:13;99759.00;;;13.30;43.98
73501;BME280;61721;42.206;25.320;2023-05-08T02:37:54;99759.53;;;13.26;44.15
73501;BME280;61721;42.206;25.320;2023-05-08T02:40:32;99765.38;;;13.38;44.28
73501;BME280;61721;42.206;25.320;2023-05-08T02:43:09;99758.34;;;13.28;44.92
73501;BME280;61721;42.206;25.320;2023-05-08T02:45:48;99759.22;;;13.44;44.28
73501;BME280;61721;42.206;25.320;2023-05-08T02:48:32;99755.94;;;13.33;44.08
73501;BME280;61721;42.206;25.320;2023-05-08T02:51:17;99747.28;;;13.38;44.26
73501;BME280;61721;42.206;25.320;2023-05-08T02:54:09;99756.28;;;13.30;44.24
73501;BME280;61721;42.206;25.320;2023-05-08T02:57:04;99761.47;;;13.40;44.34
73501;BME280;61721;42.206;25.320;2023-05-08T02:59:42;99763.03;;;13.35;44.58
73501;BME280;61721;42.206;25.320;2023-05-08T03:02:25;99772.88;;;13.50;44.51
73501;BME280;61721;42.206;25.320;2023-05-08T03:05:07;99769.81;;;13.53;44.18
73501;BME280;61721;42.206;25.320;2023-05-08T03:07:55;99769.63;;;13.55;44.38
73501;BME280;61721;42.206;25.320;2023-05-08T03:10:36;99778.28;;;13.50;44.66
73501;BME280;61721;42.206;25.320;2023-05-08T03:13:15;99774.38;;;13.53;44.20
73501;BME280;61721;42.206;25.320;2023-05-08T03:15:55;99781.72;;;13.67;44.19
73501;BME280;61721;42.206;25.320;2023-05-08T03:18:35;99775.78;;;13.86;44.07
73501;BME280;61721;42.206;25.320;2023-05-08T03:24:27;99781.66;;;13.52;46.74
73501;BME280;61721;42.206;25.320;2023-05-08T03:27:07;99784.44;;;12.82;49.17
73501;BME280;61721;42.206;25.320;2023-05-08T03:29:47;99784.06;;;12.54;50.27
73501;BME280;61721;42.206;25.320;2023-05-08T03:32:26;99784.41;;;12.51;50.64
73501;BME280;61721;42.206;25.320;2023-05-08T03:35:04;99790.69;;;12.83;50.32
73501;BME280;61721;42.206;25.320;2023-05-08T03:37:40;99789.78;;;12.59;51.23
73501;BME280;61721;42.206;25.320;2023-05-08T03:43:38;99795.66;;;11.91;55.22
73501;BME280;61721;42.206;25.320;2023-05-08T03:46:15;99802.66;;;12.41;54.67
73501;BME280;61721;42.206;25.320;2023-05-08T03:48:52;99789.19;;;12.80;54.06
73501;BME280;61721;42.206;25.320;2023-05-08T03:51:30;99795.75;;;12.86;53.86
73501;BME280;61721;42.206;25.320;2023-05-08T03:54:09;99796.91;;;13.14;53.57
73501;BME280;61721;42.206;25.320;2023-05-08T03:56:45;99799.75;;;12.98;54.04
73501;BME280;61721;42.206;25.320;2023-05-08T03:59:31;99805.41;;;12.80;55.06
73501;BME280;61721;42.206;25.320;2023-05-08T04:02:17;99806.06;;;12.82;54.81
73501;BME280;61721;42.206;25.320;2023-05-08T04:04:59;99803.47;;;12.50;56.35
73501;BME280;61721;42.206;25.320;2023-05-08T04:07:44;99807.53;;;12.93;54.35
73501;BME280;61721;42.206;25.320;2023-05-08T04:10:26;99820.03;;;12.94;54.47
73501;BME280;61721;42.206;25.320;2023-05-08T04:13:06;99812.00;;;13.09;53.10
73501;BME280;61721;42.206;25.320;2023-05-08T04:15:51;99814.09;;;13.29;52.31
73501;BME280;61721;42.206;25.320;2023-05-08T04:18:35;99822.78;;;13.48;51.78
73501;BME280;61721;42.206;25.320;2023-05-08T04:21:17;99824.56;;;13.32;51.50
73501;BME280;61721;42.206;25.320;2023-05-08T04:23:55;99823.66;;;13.40;51.26
73501;BME280;61721;42.206;25.320;2023-05-08T04:26:32;99817.41;;;13.40;51.37
73501;BME280;61721;42.206;25.320;2023-05-08T04:29:08;99823.69;;;13.63;50.83
73501;BME280;61721;42.206;25.320;2023-05-08T04:31:49;99825.50;;;13.71;50.20
73501;BME280;61721;42.206;25.320;2023-05-08T04:34:27;99821.81;;;13.63;49.99
73501;BME280;61721;42.206;25.320;2023-05-08T04:37:05;99821.41;;;13.75;49.47
73501;BME280;61721;42.206;25.320;2023-05-08T04:39:41;99814.13;;;13.75;50.86
73501;BME280;61721;42.206;25.320;2023-05-08T04:42:17;99815.59;;;14.01;50.92
73501;BME280;61721;42.206;25.320;2023-05-08T04:44:54;99823.19;;;13.82;52.08
73501;BME280;61721;42.206;25.320;2023-05-08T04:47:32;99814.72;;;13.62;54.19
73501;BME280;61721;42.206;25.320;2023-05-08T04:50:09;99813.09;;;13.30;56.04
73501;BME280;61721;42.206;25.320;2023-05-08T04:52:45;99821.59;;;13.19;56.92
73501;BME280;61721;42.206;25.320;2023-05-08T04:55:21;99823.56;;;13.79;54.28
73501;BME280;61721;42.206;25.320;2023-05-08T04:57:58;99817.09;;;14.03;53.21
73501;BME280;61721;42.206;25.320;2023-05-08T05:00:35;99812.25;;;13.53;55.29
73501;BME280;61721;42.206;25.320;2023-05-08T05:03:14;99815.31;;;13.50;55.17
73501;BME280;61721;42.206;25.320;2023-05-08T05:05:58;99819.41;;;13.91;54.13
73501;BME280;61721;42.206;25.320;2023-05-08T05:08:35;99824.78;;;14.14;53.49
73501;BME280;61721;42.206;25.320;2023-05-08T05:11:10;99828.44;;;13.84;54.48
73501;BME280;61721;42.206;25.320;2023-05-08T05:13:47;99832.47;;;13.88;54.58
73501;BME280;61721;42.206;25.320;2023-05-08T05:16:22;99826.19;;;14.48;54.40
73501;BME280;61721;42.206;25.320;2023-05-08T05:19:01;99827.88;;;14.26;53.56
73501;BME280;61721;42.206;25.320;2023-05-08T05:21:37;99823.75;;;14.68;53.25
73501;BME280;61721;42.206;25.320;2023-05-08T05:24:14;99833.03;;;14.36;52.21
73501;BME280;61721;42.206;25.320;2023-05-08T05:26:49;99830.50;;;14.34;52.88
73501;BME280;61721;42.206;25.320;2023-05-08T05:29:25;99828.03;;;14.10;53.92
73501;BME280;61721;42.206;25.320;2023-05-08T05:32:01;99829.44;;;14.58;52.54
73501;BME280;61721;42.206;25.320;2023-05-08T05:34:41;99814.22;;;14.57;53.38
73501;BME280;61721;42.206;25.320;2023-05-08T05:37:17;99819.13;;;15.12;52.33
73501;BME280;61721;42.206;25.320;2023-05-08T05:39:55;99829.34;;;14.81;51.75
73501;BME280;61721;42.206;25.320;2023-05-08T05:42:30;99820.38;;;14.66;52.06
73501;BME280;61721;42.206;25.320;2023-05-08T05:45:07;99822.25;;;14.80;51.51
73501;BME280;61721;42.206;25.320;2023-05-08T05:47:44;99817.59;;;14.74;51.57
73501;BME280;61721;42.206;25.320;2023-05-08T05:50:23;99818.94;;;15.14;51.04
73501;BME280;61721;42.206;25.320;2023-05-08T05:52:59;99815.31;;;14.92;51.74
73501;BME280;61721;42.206;25.320;2023-05-08T05:55:35;99807.16;;;15.07;50.62
73501;BME280;61721;42.206;25.320;2023-05-08T05:58:12;99805.44;;;15.56;49.48
73501;BME280;61721;42.206;25.320;2023-05-08T06:00:48;99799.78;;;15.37;50.28
73501;BME280;61721;42.206;25.320;2023-05-08T06:03:24;99795.75;;;15.47;50.15
73501;BME280;61721;42.206;25.320;2023-05-08T06:06:04;99798.44;;;15.47;50.08
73501;BME280;61721;42.206;25.320;2023-05-08T06:08:47;99800.44;;;15.39;49.41
73501;BME280;61721;42.206;25.320;2023-05-08T06:11:23;99785.38;;;15.36;49.37
73501;BME280;61721;42.206;25.320;2023-05-08T06:13:59;99791.59;;;15.51;49.42
73501;BME280;61721;42.206;25.320;2023-05-08T06:16:36;99781.28;;;16.11;48.93
73501;BME280;61721;42.206;25.320;2023-05-08T06:19:11;99778.19;;;16.48;48.07
73501;BME280;61721;42.206;25.320;2023-05-08T06:21:50;99779.09;;;16.00;48.28
73501;BME280;61721;42.206;25.320;2023-05-08T06:24:26;99791.59;;;16.50;47.74
73501;BME280;61721;42.206;25.320;2023-05-08T06:27:04;99789.56;;;16.03;48.52
73501;BME280;61721;42.206;25.320;2023-05-08T06:29:39;99781.69;;;15.86;49.24
73501;BME280;61721;42.206;25.320;2023-05-08T06:32:16;99783.88;;;15.98;48.75
73501;BME280;61721;42.206;25.320;2023-05-08T06:34:52;99787.75;;;16.10;47.82
73501;BME280;61721;42.206;25.320;2023-05-08T06:37:31;99792.69;;;15.78;48.31
73501;BME280;61721;42.206;25.320;2023-05-08T06:40:09;99784.25;;;16.16;47.32
73501;BME280;61721;42.206;25.320;2023-05-08T06:42:46;99783.25;;;15.96;47.45
73501;BME280;61721;42.206;25.320;2023-05-08T06:45:21;99781.72;;;16.14;47.90
73501;BME280;61721;42.206;25.320;2023-05-08T06:47:58;99772.13;;;16.46;46.42
73501;BME280;61721;42.206;25.320;2023-05-08T06:50:36;99776.72;;;16.46;47.13
73501;BME280;61721;42.206;25.320;2023-05-08T06:53:17;99779.72;;;16.99;44.83
73501;BME280;61721;42.206;25.320;2023-05-08T06:55:53;99771.91;;;16.48;44.42
73501;BME280;61721;42.206;25.320;2023-05-08T06:58:29;99768.47;;;16.33;44.89
73501;BME280;61721;42.206;25.320;2023-05-08T07:01:05;99766.09;;;16.51;45.19
73501;BME280;61721;42.206;25.320;2023-05-08T07:03:49;99768.56;;;17.35;44.95
73501;BME280;61721;42.206;25.320;2023-05-08T07:06:31;99765.59;;;17.30;45.30
73501;BME280;61721;42.206;25.320;2023-05-08T07:09:10;99764.41;;;17.65;44.20
73501;BME280;61721;42.206;25.320;2023-05-08T07:11:47;99769.84;;;17.52;44.18
73501;BME280;61721;42.206;25.320;2023-05-08T07:14:24;99765.31;;;17.86;42.91
73501;BME280;61721;42.206;25.320;2023-05-08T07:17:03;99769.25;;;18.23;42.58
73501;BME280;61721;42.206;25.320;2023-05-08T07:19:41;99763.63;;;18.17;42.49
73501;BME280;61721;42.206;25.320;2023-05-08T07:22:16;99763.53;;;18.44;41.87
73501;BME280;61721;42.206;25.320;2023-05-08T07:25:00;99767.53;;;18.35;41.18
73501;BME280;61721;42.206;25.320;2023-05-08T07:27:37;99760.38;;;17.35;43.05
73501;BME280;61721;42.206;25.320;2023-05-08T07:30:15;99766.06;;;17.53;43.93
73501;BME280;61721;42.206;25.320;2023-05-08T07:32:50;99755.41;;;17.58;43.49
73501;BME280;61721;42.206;25.320;2023-05-08T07:35:27;99753.47;;;18.44;43.19
73501;BME280;61721;42.206;25.320;2023-05-08T07:38:02;99743.38;;;18.52;41.80
73501;BME280;61721;42.206;25.320;2023-05-08T07:40:41;99736.72;;;18.34;42.62
73501;BME280;61721;42.206;25.320;2023-05-08T07:43:17;99744.50;;;19.02;42.07
73501;BME280;61721;42.206;25.320;2023-05-08T07:45:53;99739.56;;;18.79;40.92
73501;BME280;61721;42.206;25.320;2023-05-08T07:48:29;99738.59;;;18.34;41.86
73501;BME280;61721;42.206;25.320;2023-05-08T07:51:06;99736.44;;;19.13;41.63
73501;BME280;61721;42.206;25.320;2023-05-08T07:53:42;99745.09;;;19.42;41.50
73501;BME280;61721;42.206;25.320;2023-05-08T07:56:23;99747.75;;;18.79;41.60
73501;BME280;61721;42.206;25.320;2023-05-08T07:58:59;99744.53;;;19.33;40.70
73501;BME280;61721;42.206;25.320;2023-05-08T08:01:36;99743.16;;;19.49;40.84
73501;BME280;61721;42.206;25.320;2023-05-08T08:04:13;99737.47;;;19.19;40.01
73501;BME280;61721;42.206;25.320;2023-05-08T08:06:56;99733.66;;;19.27;40.34
73501;BME280;61721;42.206;25.320;2023-05-08T08:09:32;99737.28;;;19.84;39.68
73501;BME280;61721;42.206;25.320;2023-05-08T08:12:11;99728.72;;;19.42;39.62
73501;BME280;61721;42.206;25.320;2023-05-08T08:14:47;99729.00;;;18.89;40.27
73501;BME280;61721;42.206;25.320;2023-05-08T08:17:24;99723.22;;;19.49;39.85
73501;BME280;61721;42.206;25.320;2023-05-08T08:19:59;99720.84;;;19.27;40.44
73501;BME280;61721;42.206;25.320;2023-05-08T08:22:37;99721.41;;;19.36;40.47
73501;BME280;61721;42.206;25.320;2023-05-08T08:25:12;99721.81;;;19.39;40.44
73501;BME280;61721;42.206;25.320;2023-05-08T08:27:51;99718.84;;;19.41;40.78
73501;BME280;61721;42.206;25.320;2023-05-08T08:30:27;99715.91;;;19.42;40.07
73501;BME280;61721;42.206;25.320;2023-05-08T08:33:04;99716.00;;;19.29;40.56
73501;BME280;61721;42.206;25.320;2023-05-08T08:35:39;99712.66;;;20.08;40.02
73501;BME280;61721;42.206;25.320;2023-05-08T08:38:15;99710.94;;;20.14;39.95
73501;BME280;61721;42.206;25.320;2023-05-08T08:40:51;99712.06;;;20.25;40.37
73501;BME280;61721;42.206;25.320;2023-05-08T08:43:30;99711.72;;;19.71;40.58
73501;BME280;61721;42.206;25.320;2023-05-08T08:46:10;99700.34;;;19.74;41.19
73501;BME280;61721;42.206;25.320;2023-05-08T08:48:47;99698.50;;;20.36;39.76
73501;BME280;61721;42.206;25.320;2023-05-08T08:51:27;99698.06;;;19.96;40.17
73501;BME280;61721;42.206;25.320;2023-05-08T08:54:08;99697.63;;;19.74;40.84
73501;BME280;61721;42.206;25.320;2023-05-08T08:56:44;99690.66;;;20.22;40.65
73501;BME280;61721;42.206;25.320;2023-05-08T08:59:26;99694.34;;;21.00;39.97
73501;BME280;61721;42.206;25.320;2023-05-08T09:02:07;99695.34;;;21.18;39.40
73501;BME280;61721;42.206;25.320;2023-05-08T09:04:49;99686.41;;;21.11;39.69
73501;BME280;61721;42.206;25.320;2023-05-08T09:07:25;99685.81;;;21.38;39.53
73501;BME280;61721;42.206;25.320;2023-05-08T09:10:05;99682.59;;;21.12;39.70
73501;BME280;61721;42.206;25.320;2023-05-08T09:12:47;99682.75;;;20.32;39.95
73501;BME280;61721;42.206;25.320;2023-05-08T09:15:25;99685.28;;;20.70;39.78
73501;BME280;61721;42.206;25.320;2023-05-08T09:18:01;99677.06;;;20.70;39.84
73501;BME280;61721;42.206;25.320;2023-05-08T09:20:38;99675.00;;;21.55;39.33
73501;BME280;61721;42.206;25.320;2023-05-08T09:23:15;99669.66;;;21.72;38.68
73501;BME280;61721;42.206;25.320;2023-05-08T09:25:52;99665.56;;;21.10;39.09
73501;BME280;61721;42.206;25.320;2023-05-08T09:28:28;99660.81;;;20.87;39.76
73501;BME280;61721;42.206;25.320;2023-05-08T09:31:06;99665.59;;;21.63;39.32
73501;BME280;61721;42.206;25.320;2023-05-08T09:33:43;99663.69;;;21.52;39.22
73501;BME280;61721;42.206;25.320;2023-05-08T09:36:29;99649.03;;;21.16;39.50
73501;BME280;61721;42.206;25.320;2023-05-08T09:39:10;99653.69;;;21.16;39.77
73501;BME280;61721;42.206;25.320;2023-05-08T09:41:56;99647.03;;;21.88;39.76
73501;BME280;61721;42.206;25.320;2023-05-08T09:44:43;99640.13;;;22.09;38.72
73501;BME280;61721;42.206;25.320;2023-05-08T09:47:23;99633.09;;;22.13;39.10
73501;BME280;61721;42.206;25.320;2023-05-08T09:50:00;99627.47;;;22.31;38.92
73501;BME280;61721;42.206;25.320;2023-05-08T09:52:36;99623.03;;;22.30;38.31
73501;BME280;61721;42.206;25.320;2023-05-08T09:55:14;99629.88;;;21.81;39.98
73501;BME280;61721;42.206;25.320;2023-05-08T09:57:52;99617.00;;;22.17;38.83
73501;BME280;61721;42.206;25.320;2023-05-08T10:00:29;99619.38;;;22.65;38.48
73501;BME280;61721;42.206;25.320;2023-05-08T10:03:16;99615.84;;;22.53;37.84
73501;BME280;61721;42.206;25.320;2023-05-08T10:06:11;99609.06;;;22.44;38.33
73501;BME280;61721;42.206;25.320;2023-05-08T10:09:07;99596.50;;;22.48;37.57
73501;BME280;61721;42.206;25.320;2023-05-08T10:11:50;99600.81;;;22.44;38.89
73501;BME280;61721;42.206;25.320;2023-05-08T10:14:27;99599.69;;;22.16;39.67
73501;BME280;61721;42.206;25.320;2023-05-08T10:17:02;99592.97;;;22.35;39.41
73501;BME280;61721;42.206;25.320;2023-05-08T10:19:45;99589.56;;;22.17;40.12
73501;BME280;61721;42.206;25.320;2023-05-08T10:22:24;99592.81;;;22.02;41.20
73501;BME280;61721;42.206;25.320;2023-05-08T10:25:02;99594.47;;;22.03;40.94
73501;BME280;61721;42.206;25.320;2023-05-08T10:27:42;99584.19;;;22.62;39.41
73501;BME280;61721;42.206;25.320;2023-05-08T10:30:24;99578.88;;;23.01;38.19
73501;BME280;61721;42.206;25.320;2023-05-08T10:33:02;99582.53;;;22.89;39.71
73501;BME280;61721;42.206;25.320;2023-05-08T10:35:44;99579.28;;;22.92;39.85
73501;BME280;61721;42.206;25.320;2023-05-08T10:38:21;99578.03;;;22.72;39.95
73501;BME280;61721;42.206;25.320;2023-05-08T10:41:00;99576.94;;;22.04;41.69
73501;BME280;61721;42.206;25.320;2023-05-08T10:43:40;99569.94;;;22.37;41.01
73501;BME280;61721;42.206;25.320;2023-05-08T10:46:21;99573.78;;;22.35;40.70
73501;BME280;61721;42.206;25.320;2023-05-08T10:49:13;99569.19;;;22.53;40.97
73501;BME280;61721;42.206;25.320;2023-05-08T10:52:06;99566.38;;;22.64;39.95
73501;BME280;61721;42.206;25.320;2023-05-08T10:54:58;99560.41;;;22.96;40.20
73501;BME280;61721;42.206;25.320;2023-05-08T10:57:38;99564.88;;;22.17;41.00
73501;BME280;61721;42.206;25.320;2023-05-08T11:00:13;99555.56;;;22.58;40.66
73501;BME280;61721;42.206;25.320;2023-05-08T11:02:50;99554.34;;;23.11;40.47
73501;BME280;61721;42.206;25.320;2023-05-08T11:05:25;99553.16;;;22.61;41.63
73501;BME280;61721;42.206;25.320;2023-05-08T11:08:13;99562.47;;;22.60;41.46
73501;BME280;61721;42.206;25.320;2023-05-08T11:11:04;99548.59;;;22.95;39.84
73501;BME280;61721;42.206;25.320;2023-05-08T11:13:46;99555.91;;;23.07;40.35
73501;BME280;61721;42.206;25.320;2023-05-08T11:19:29;99537.44;;;22.85;40.75
73501;BME280;61721;42.206;25.320;2023-05-08T11:22:22;99538.13;;;23.26;39.14
73501;BME280;61721;42.206;25.320;2023-05-08T11:25:04;99528.41;;;23.57;39.55
73501;BME280;61721;42.206;25.320;2023-05-08T11:30:46;99531.75;;;23.42;39.67
73501;BME280;61721;42.206;25.320;2023-05-08T11:33:21;99530.44;;;23.28;40.95
73501;BME280;61721;42.206;25.320;2023-05-08T11:35:59;99525.88;;;23.17;39.80
73501;BME280;61721;42.206;25.320;2023-05-08T11:38:37;99527.03;;;23.38;39.49
73501;BME280;61721;42.206;25.320;2023-05-08T11:41:22;99526.88;;;22.94;39.15
73501;BME280;61721;42.206;25.320;2023-05-08T11:44:17;99514.97;;;23.22;39.75
73501;BME280;61721;42.206;25.320;2023-05-08T11:46:54;99512.06;;;23.28;39.04
73501;BME280;61721;42.206;25.320;2023-05-08T11:49:31;99507.38;;;23.84;39.16
73501;BME280;61721;42.206;25.320;2023-05-08T11:52:08;99509.97;;;23.19;40.57
73501;BME280;61721;42.206;25.320;2023-05-08T11:54:44;99498.84;;;23.47;40.13
73501;BME280;61721;42.206;25.320;2023-05-08T11:57:22;99498.75;;;23.42;40.44
73501;BME280;61721;42.206;25.320;2023-05-08T12:00:04;99503.31;;;23.53;39.36
73501;BME280;61721;42.206;25.320;2023-05-08T12:02:42;99490.22;;;23.77;38.74
73501;BME280;61721;42.206;25.320;2023-05-08T12:05:25;99494.25;;;24.13;38.84
73501;BME280;61721;42.206;25.320;2023-05-08T12:08:02;99485.16;;;24.13;38.16
73501;BME280;61721;42.206;25.320;2023-05-08T12:10:40;99484.22;;;24.02;38.40
73501;BME280;61721;42.206;25.320;2023-05-08T12:13:27;99486.31;;;24.39;38.36
73501;BME280;61721;42.206;25.320;2023-05-08T12:16:04;99481.44;;;24.46;37.75
73501;BME280;61721;42.206;25.320;2023-05-08T12:18:40;99475.09;;;24.23;37.66
73501;BME280;61721;42.206;25.320;2023-05-08T12:21:16;99479.50;;;24.46;38.16
73501;BME280;61721;42.206;25.320;2023-05-08T12:23:53;99475.00;;;24.13;37.89
73501;BME280;61721;42.206;25.320;2023-05-08T12:26:34;99479.72;;;24.18;38.47
73501;BME280;61721;42.206;25.320;2023-05-08T12:29:12;99466.03;;;24.77;37.97
73501;BME280;61721;42.206;25.320;2023-05-08T12:31:49;99466.94;;;24.87;37.79
73501;BME280;61721;42.206;25.320;2023-05-08T12:34:25;99468.25;;;24.48;38.06
73501;BME280;61721;42.206;25.320;2023-05-08T12:37:02;99467.19;;;24.27;38.67
73501;BME280;61721;42.206;25.320;2023-05-08T12:39:43;99462.09;;;24.41;38.70
73501;BME280;61721;42.206;25.320;2023-05-08T12:42:19;99456.88;;;24.17;39.26
73501;BME280;61721;42.206;25.320;2023-05-08T12:44:58;99451.59;;;24.65;38.64
73501;BME280;61721;42.206;25.320;2023-05-08T12:47:35;99449.69;;;24.65;38.78
73501;BME280;61721;42.206;25.320;2023-05-08T12:50:13;99449.91;;;24.90;38.21
73501;BME280;61721;42.206;25.320;2023-05-08T12:52:50;99440.59;;;24.65;38.97
73501;BME280;61721;42.206;25.320;2023-05-08T12:55:28;99445.06;;;25.03;38.08
73501;BME280;61721;42.206;25.320;2023-05-08T12:58:06;99449.06;;;24.90;37.43
73501;BME280;61721;42.206;25.320;2023-05-08T13:03:56;99445.13;;;24.81;38.80
73501;BME280;61721;42.206;25.320;2023-05-08T13:06:40;99454.44;;;24.43;39.11
73501;BME280;61721;42.206;25.320;2023-05-08T13:09:17;99452.69;;;24.64;39.54
73501;BME280;61721;42.206;25.320;2023-05-08T13:11:54;99459.44;;;24.78;38.74
73501;BME280;61721;42.206;25.320;2023-05-08T13:14:30;99455.44;;;24.64;38.72
73501;BME280;61721;42.206;25.320;2023-05-08T13:17:06;99450.25;;;24.67;39.06
73501;BME280;61721;42.206;25.320;2023-05-08T13:19:44;99449.81;;;24.80;38.41
73501;BME280;61721;42.206;25.320;2023-05-08T13:22:21;99458.19;;;24.96;38.10
73501;BME280;61721;42.206;25.320;2023-05-08T13:24:58;99461.91;;;24.79;38.50
73501;BME280;61721;42.206;25.320;2023-05-08T13:27:34;99453.78;;;24.95;38.06
73501;BME280;61721;42.206;25.320;2023-05-08T13:30:11;99459.66;;;25.03;38.64
73501;BME280;61721;42.206;25.320;2023-05-08T13:32:48;99449.78;;;25.07;37.58
73501;BME280;61721;42.206;25.320;2023-05-08T13:35:26;99448.13;;;25.06;37.92
73501;BME280;61721;42.206;25.320;2023-05-08T13:38:03;99448.47;;;24.83;37.89
73501;BME280;61721;42.206;25.320;2023-05-08T13:40:41;99449.84;;;24.85;38.39
73501;BME280;61721;42.206;25.320;2023-05-08T13:43:17;99440.66;;;24.43;39.03
73501;BME280;61721;42.206;25.320;2023-05-08T13:45:55;99451.03;;;24.95;39.44
73501;BME280;61721;42.206;25.320;2023-05-08T13:48:31;99441.38;;;24.92;39.13
73501;BME280;61721;42.206;25.320;2023-05-08T13:51:10;99441.03;;;25.15;38.86
73501;BME280;61721;42.206;25.320;2023-05-08T13:53:47;99445.63;;;25.05;37.83
73501;BME280;61721;42.206;25.320;2023-05-08T13:56:23;99447.38;;;25.16;38.07
73501;BME280;61721;42.206;25.320;2023-05-08T13:58:59;99446.34;;;25.27;38.14
73501;BME280;61721;42.206;25.320;2023-05-08T14:01:35;99439.97;;;24.89;38.79
73501;BME280;61721;42.206;25.320;2023-05-08T14:04:11;99439.72;;;24.91;38.26
73501;BME280;61721;42.206;25.320;2023-05-08T14:06:50;99435.47;;;25.10;37.51
73501;BME280;61721;42.206;25.320;2023-05-08T14:09:33;99441.09;;;25.26;38.85
73501;BME280;61721;42.206;25.320;2023-05-08T14:12:09;99436.16;;;24.96;39.58
73501;BME280;61721;42.206;25.320;2023-05-08T14:14:45;99434.56;;;24.68;40.86
73501;BME280;61721;42.206;25.320;2023-05-08T14:17:21;99429.09;;;24.41;41.69